Time;durP1;ratioP1;P1;durP2;ratioP2;P2;SDS_P1;SDS_P2;PMS_P1;PMS_P2;Temp;Humidity;BMP_temperature;BMP_pressure;BME280_temperature;BME280_humidity;BME280_pressure;Samples;Min_cycle;Max_cycle;Signal;HPM_P1;HPM_P2
2020/12/15 00:02:17;;;;;;;16.77;9.68;;;5.90;98.10;;;;;;5036657;28;20060;-87
2020/12/15 00:04:44;;;;;;;18.30;10.13;;;6.00;98.00;;;;;;5036440;28;20578;-87
2020/12/15 00:07:13;;;;;;;13.77;9.18;;;6.00;97.60;;;;;;5035926;28;20521;-87
2020/12/15 00:09:39;;;;;;;16.25;9.73;;;6.00;97.70;;;;;;5036493;28;20129;-87
2020/12/15 00:12:06;;;;;;;15.98;9.85;;;6.10;97.60;;;;;;5035967;28;20089;-86
2020/12/15 00:14:32;;;;;;;17.77;10.65;;;6.20;97.70;;;;;;5036197;28;20133;-86
2020/12/15 00:17:00;;;;;;;15.13;9.65;;;6.20;97.70;;;;;;5036365;28;20053;-87
2020/12/15 00:19:27;;;;;;;17.23;9.82;;;6.20;97.50;;;;;;5036072;28;20169;-87
2020/12/15 00:21:54;;;;;;;15.93;9.82;;;6.30;97.40;;;;;;5035576;28;20136;-87
2020/12/15 00:24:21;;;;;;;17.75;10.00;;;6.20;97.60;;;;;;5035479;28;20140;-86
2020/12/15 00:26:48;;;;;;;17.35;10.02;;;6.20;97.40;;;;;;5035344;28;20578;-85
2020/12/15 00:29:16;;;;;;;16.20;9.35;;;6.30;97.50;;;;;;5034424;28;20055;-86
2020/12/15 00:31:44;;;;;;;15.93;9.52;;;6.30;97.60;;;;;;5034105;28;20479;-86
2020/12/15 00:34:11;;;;;;;17.33;10.75;;;6.30;98.00;;;;;;5036147;28;20049;-86
2020/12/15 00:36:37;;;;;;;19.33;11.95;;;6.30;97.50;;;;;;5035143;28;20566;-86
2020/12/15 00:39:04;;;;;;;19.08;12.38;;;6.30;97.20;;;;;;5035799;28;20132;-85
2020/12/15 00:41:32;;;;;;;21.63;10.13;;;6.30;97.10;;;;;;5035968;28;20136;-87
2020/12/15 00:43:58;;;;;;;14.55;9.07;;;6.30;97.30;;;;;;5035686;28;20081;-87
2020/12/15 00:46:25;;;;;;;16.60;9.98;;;6.30;97.60;;;;;;5035828;28;20132;-84
2020/12/15 00:48:51;;;;;;;14.45;9.80;;;6.20;97.70;;;;;;5035717;28;20136;-87
2020/12/15 00:51:20;;;;;;;15.73;9.48;;;6.40;97.70;;;;;;5035778;28;20133;-87
2020/12/15 00:53:48;;;;;;;15.77;9.40;;;6.30;97.80;;;;;;5035129;28;20085;-86
2020/12/15 00:56:15;;;;;;;15.75;9.13;;;6.30;97.50;;;;;;5035596;28;20055;-86
2020/12/15 00:58:42;;;;;;;14.68;8.93;;;6.40;97.40;;;;;;5035592;28;20156;-86
2020/12/15 01:01:10;;;;;;;12.32;8.15;;;6.30;97.40;;;;;;5035369;28;20133;-85
2020/12/15 01:03:37;;;;;;;15.45;9.45;;;6.50;97.30;;;;;;5035377;28;20140;-86
2020/12/15 01:06:05;;;;;;;14.50;8.80;;;6.40;97.30;;;;;;5035365;28;20493;-84
2020/12/15 01:08:31;;;;;;;16.45;9.35;;;6.50;97.30;;;;;;5035502;28;20132;-85
2020/12/15 01:10:58;;;;;;;16.50;9.40;;;6.60;97.50;;;;;;5035269;28;20049;-85
2020/12/15 01:13:24;;;;;;;17.45;10.43;;;6.60;97.10;;;;;;5035176;28;20147;-85
2020/12/15 01:15:52;;;;;;;19.70;11.25;;;6.60;96.80;;;;;;5035187;28;20210;-85
2020/12/15 01:18:19;;;;;;;17.92;10.93;;;6.60;96.70;;;;;;5035158;28;20497;-84
2020/12/15 01:20:46;;;;;;;16.80;11.27;;;6.50;96.60;;;;;;5035335;28;20128;-86
2020/12/15 01:23:12;;;;;;;15.27;9.93;;;6.50;96.70;;;;;;5034750;28;20144;-86
2020/12/15 01:25:39;;;;;;;16.38;10.57;;;6.50;96.70;;;;;;5035100;28;20145;-85
2020/12/15 01:28:06;;;;;;;17.88;10.73;;;6.50;96.60;;;;;;5035521;28;20483;-85
2020/12/15 01:30:32;;;;;;;17.98;10.80;;;6.50;96.70;;;;;;5035552;28;20136;-85
2020/12/15 01:33:00;;;;;;;18.58;11.05;;;6.40;96.50;;;;;;5035885;28;20122;-85
2020/12/15 01:35:26;;;;;;;16.52;10.25;;;6.40;96.70;;;;;;5034992;28;20136;-85
2020/12/15 01:37:53;;;;;;;17.90;10.90;;;6.40;96.80;;;;;;5035407;28;20139;-86
2020/12/15 01:40:20;;;;;;;17.65;11.07;;;6.40;96.60;;;;;;5035296;28;20399;-85
2020/12/15 01:42:47;;;;;;;19.55;11.82;;;6.30;96.50;;;;;;5035084;28;20468;-84
2020/12/15 01:45:13;;;;;;;16.35;9.25;;;6.30;96.70;;;;;;5035173;28;20136;-86
2020/12/15 01:47:42;;;;;;;15.27;9.80;;;6.30;96.70;;;;;;5035925;28;20141;-87
2020/12/15 01:50:09;;;;;;;16.75;9.85;;;6.30;96.80;;;;;;5034593;28;20069;-87
2020/12/15 01:52:36;;;;;;;15.60;9.82;;;6.10;96.70;;;;;;5035281;28;20145;-87
2020/12/15 01:55:03;;;;;;;15.93;9.75;;;6.10;97.00;;;;;;5035876;28;20060;-87
2020/12/15 01:57:29;;;;;;;17.60;10.80;;;6.00;97.10;;;;;;5035469;28;20228;-85
2020/12/15 01:59:56;;;;;;;16.52;10.10;;;6.00;97.00;;;;;;5034951;28;20093;-87
2020/12/15 02:02:22;;;;;;;14.73;9.95;;;6.00;97.10;;;;;;5034538;28;20451;-87
2020/12/15 02:04:50;;;;;;;15.13;9.52;;;5.90;97.30;;;;;;5034857;28;20072;-87
2020/12/15 02:07:19;;;;;;;15.25;9.75;;;5.90;97.40;;;;;;5034934;28;20128;-87
2020/12/15 02:09:46;;;;;;;18.02;9.98;;;5.90;97.90;;;;;;5035651;28;20495;-87
2020/12/15 02:12:13;;;;;;;17.05;10.00;;;6.00;97.70;;;;;;5034667;28;20124;-87
2020/12/15 02:14:43;;;;;;;16.77;10.30;;;6.00;97.80;;;;;;5035183;28;20129;-87
2020/12/15 02:17:14;;;;;;;19.63;11.57;;;5.90;98.10;;;;;;5034632;28;20148;-84
2020/12/15 02:19:40;;;;;;;22.70;12.50;;;6.00;97.90;;;;;;5034862;28;20065;-85
2020/12/15 02:22:08;;;;;;;17.52;10.95;;;6.00;97.80;;;;;;5035053;28;20149;-85
2020/12/15 02:24:35;;;;;;;14.77;9.93;;;6.10;97.80;;;;;;5034145;28;20144;-84
2020/12/15 02:27:01;;;;;;;13.20;9.88;;;6.10;97.70;;;;;;5035036;28;20136;-84
2020/12/15 02:29:28;;;;;;;17.45;10.10;;;6.20;97.50;;;;;;5034887;28;20080;-85
2020/12/15 02:31:54;;;;;;;17.48;10.27;;;6.40;97.40;;;;;;5033566;28;20060;-86
2020/12/15 02:34:21;;;;;;;17.77;10.35;;;6.20;97.20;;;;;;5034715;28;20463;-86
2020/12/15 02:36:48;;;;;;;16.90;10.65;;;6.20;97.30;;;;;;5034240;28;20096;-85
2020/12/15 02:39:18;;;;;;;16.15;9.88;;;6.20;97.10;;;;;;5034603;28;20158;-85
2020/12/15 02:41:52;;;;;;;15.50;9.93;;;6.10;97.30;;;;;;5034615;28;20140;-86
2020/12/15 02:44:18;;;;;;;16.55;9.85;;;6.10;97.30;;;;;;5034567;28;20136;-85
2020/12/15 02:46:45;;;;;;;14.20;9.18;;;6.20;97.30;;;;;;5033448;28;20128;-86
2020/12/15 02:49:12;;;;;;;16.20;9.63;;;6.10;97.10;;;;;;5034598;28;20136;-85
2020/12/15 02:51:38;;;;;;;17.60;9.75;;;6.20;97.20;;;;;;5034152;28;20045;-86
2020/12/15 02:54:05;;;;;;;16.60;9.90;;;6.10;97.30;;;;;;5034528;28;20140;-86
2020/12/15 02:56:32;;;;;;;15.88;9.75;;;6.20;97.30;;;;;;5034781;28;20049;-85
2020/12/15 02:58:59;;;;;;;14.05;8.60;;;6.30;97.40;;;;;;5033117;28;20140;-85
2020/12/15 03:01:25;;;;;;;15.40;9.13;;;6.20;97.20;;;;;;5033365;28;20128;-85
2020/12/15 03:03:52;;;;;;;16.77;9.32;;;6.20;97.30;;;;;;5033594;28;20076;-85
2020/12/15 03:06:18;;;;;;;14.07;8.88;;;6.20;97.40;;;;;;5033686;28;20128;-85
2020/12/15 03:08:45;;;;;;;14.82;9.20;;;6.30;97.40;;;;;;5033969;28;20132;-86
2020/12/15 03:11:11;;;;;;;13.88;8.48;;;6.30;97.30;;;;;;5033276;28;20140;-86
2020/12/15 03:13:39;;;;;;;17.27;8.50;;;6.20;97.30;;;;;;5033122;28;20140;-85
2020/12/15 03:16:06;;;;;;;15.52;8.77;;;6.30;97.30;;;;;;5033529;28;20080;-86
2020/12/15 03:18:32;;;;;;;15.57;8.82;;;6.20;97.30;;;;;;5032877;28;20132;-85
2020/12/15 03:21:02;;;;;;;13.65;8.57;;;6.20;97.40;;;;;;5033707;28;20088;-85
2020/12/15 03:23:28;;;;;;;16.42;9.50;;;6.20;97.50;;;;;;5033163;28;20084;-85
2020/12/15 03:25:55;;;;;;;16.27;8.95;;;6.20;97.50;;;;;;5033012;28;20128;-86
2020/12/15 03:28:22;;;;;;;16.85;9.02;;;6.20;97.60;;;;;;5034120;28;20480;-85
2020/12/15 03:30:50;;;;;;;15.88;9.15;;;6.30;97.70;;;;;;5036929;28;20113;-85
2020/12/15 03:33:17;;;;;;;15.15;9.18;;;6.10;97.60;;;;;;5035889;28;20140;-86
2020/12/15 03:35:44;;;;;;;16.08;9.45;;;6.20;97.50;;;;;;5033562;28;20571;-85
2020/12/15 03:38:11;;;;;;;15.32;8.73;;;6.20;97.30;;;;;;5033626;28;20464;-86
2020/12/15 03:40:38;;;;;;;14.95;9.10;;;6.10;97.20;;;;;;5032955;28;20088;-86
2020/12/15 03:43:04;;;;;;;13.95;9.00;;;6.30;97.40;;;;;;5033263;28;20156;-86
2020/12/15 03:45:32;;;;;;;15.00;9.13;;;6.30;97.30;;;;;;5033470;28;20132;-87
2020/12/15 03:47:59;;;;;;;15.32;9.02;;;6.20;97.20;;;;;;5033664;28;20140;-87
2020/12/15 03:50:26;;;;;;;15.23;8.63;;;6.20;97.50;;;;;;5033871;28;20128;-87
2020/12/15 03:52:53;;;;;;;13.80;8.63;;;6.10;97.80;;;;;;5032796;28;20062;-86
2020/12/15 03:55:21;;;;;;;14.73;8.57;;;6.00;98.20;;;;;;5033240;28;20548;-85
2020/12/15 03:57:50;;;;;;;12.93;8.30;;;6.00;98.10;;;;;;5033156;28;20495;-85
2020/12/15 04:00:17;;;;;;;14.05;8.68;;;5.90;97.90;;;;;;5033484;28;20388;-84
2020/12/15 04:02:44;;;;;;;15.68;8.48;;;6.10;98.10;;;;;;5037029;28;20145;-85
2020/12/15 04:05:12;;;;;;;15.35;9.18;;;6.00;97.80;;;;;;5034528;28;20053;-85
2020/12/15 04:07:40;;;;;;;13.50;8.07;;;6.10;97.80;;;;;;5032541;28;20132;-85
2020/12/15 04:10:07;;;;;;;15.80;8.88;;;6.00;98.10;;;;;;5033777;28;20131;-87
2020/12/15 04:12:34;;;;;;;13.82;8.40;;;5.90;98.30;;;;;;5033780;28;20133;-88
2020/12/15 04:15:01;;;;;;;15.25;9.95;;;5.80;98.50;;;;;;5033358;28;20132;-88
2020/12/15 04:17:28;;;;;;;14.88;8.43;;;5.60;98.80;;;;;;5033659;28;20084;-87
2020/12/15 04:19:54;;;;;;;14.00;8.75;;;5.60;98.90;;;;;;5033534;28;20152;-87
2020/12/15 04:22:22;;;;;;;17.02;8.18;;;5.60;99.00;;;;;;5032309;28;20136;-87
2020/12/15 04:24:49;;;;;;;14.23;8.45;;;5.70;99.20;;;;;;5033472;28;20053;-86
2020/12/15 04:27:15;;;;;;;14.15;8.68;;;5.50;99.30;;;;;;5034246;28;20128;-89
2020/12/15 04:29:42;;;;;;;14.32;8.38;;;5.40;99.40;;;;;;5032898;28;20124;-86
2020/12/15 04:32:08;;;;;;;11.77;7.97;;;5.40;99.50;;;;;;5036172;28;20029;-86
2020/12/15 04:34:35;;;;;;;12.00;7.57;;;5.50;99.40;;;;;;5036519;28;20132;-85
2020/12/15 04:37:02;;;;;;;13.02;7.47;;;5.60;99.00;;;;;;5037051;28;20101;-85
2020/12/15 04:39:29;;;;;;;14.10;8.43;;;5.70;98.90;;;;;;5037096;28;20137;-86
2020/12/15 04:41:56;;;;;;;12.57;7.93;;;5.80;98.80;;;;;;5035733;28;20081;-85
2020/12/15 04:44:24;;;;;;;12.38;7.90;;;5.90;98.30;;;;;;5034453;28;20045;-87
2020/12/15 04:47:06;;;;;;;11.82;7.53;;;5.90;97.90;;;;;;5035174;28;20144;-86
2020/12/15 04:49:48;;;;;;;12.63;7.80;;;6.00;98.00;;;;;;5036141;28;20128;-85
2020/12/15 04:52:23;;;;;;;12.07;7.82;;;6.20;97.60;;;;;;5034764;28;20136;-86
2020/12/15 04:54:52;;;;;;;13.75;7.80;;;6.20;97.60;;;;;;5036989;28;20061;-85
2020/12/15 04:57:22;;;;;;;11.60;6.90;;;6.30;97.10;;;;;;5036179;28;20089;-85
2020/12/15 04:59:50;;;;;;;11.75;7.57;;;6.40;96.70;;;;;;5036106;28;20136;-85
2020/12/15 05:02:18;;;;;;;12.57;7.07;;;6.40;96.70;;;;;;5037120;28;20475;-85
2020/12/15 05:04:45;;;;;;;13.07;7.93;;;6.50;96.70;;;;;;5036012;28;20483;-84
2020/12/15 05:07:12;;;;;;;12.85;7.53;;;6.40;97.10;;;;;;5036446;28;20046;-82
2020/12/15 05:09:39;;;;;;;12.82;7.65;;;6.40;96.90;;;;;;5036877;28;20134;-83
2020/12/15 05:12:07;;;;;;;11.60;7.30;;;6.40;96.80;;;;;;5036621;28;20059;-84
2020/12/15 05:14:34;;;;;;;12.73;6.82;;;6.40;96.90;;;;;;5035056;28;20132;-84
2020/12/15 05:17:00;;;;;;;12.40;6.40;;;6.20;96.90;;;;;;5035107;28;20059;-87
2020/12/15 05:19:27;;;;;;;12.68;6.72;;;6.20;96.60;;;;;;5035280;28;20049;-87
2020/12/15 05:21:58;;;;;;;10.80;6.72;;;6.00;97.00;;;;;;5035718;28;20553;-85
2020/12/15 05:24:27;;;;;;;12.93;7.45;;;5.90;97.40;;;;;;5035604;28;20562;-84
2020/12/15 05:26:56;;;;;;;12.32;6.95;;;5.90;97.40;;;;;;5036865;28;20045;-84
2020/12/15 05:29:24;;;;;;;13.35;7.35;;;6.00;97.50;;;;;;5036173;28;20132;-85
2020/12/15 05:31:52;;;;;;;13.35;7.45;;;6.20;97.30;;;;;;5035698;28;20133;-85
2020/12/15 05:34:24;;;;;;;12.32;7.53;;;6.20;97.30;;;;;;5035104;28;20379;-85
2020/12/15 05:36:53;;;;;;;11.77;7.22;;;6.30;97.30;;;;;;5037087;28;20128;-84
2020/12/15 05:39:21;;;;;;;11.75;7.25;;;6.20;97.20;;;;;;5036027;28;20136;-85
2020/12/15 05:41:58;;;;;;;14.48;7.47;;;6.30;97.20;;;;;;5034692;28;20138;-84
2020/12/15 05:44:34;;;;;;;11.75;7.00;;;6.40;97.20;;;;;;5036227;28;20471;-84
2020/12/15 05:47:05;;;;;;;13.68;8.10;;;6.40;97.00;;;;;;5035939;28;20049;-84
2020/12/15 05:49:33;;;;;;;12.90;7.20;;;6.50;97.00;;;;;;5037451;28;20109;-84
2020/12/15 05:52:01;;;;;;;13.80;8.35;;;6.50;96.90;;;;;;5036766;28;20057;-84
2020/12/15 05:54:28;;;;;;;12.02;7.57;;;6.50;96.90;;;;;;5035952;28;20468;-84
2020/12/15 05:57:02;;;;;;;12.32;7.45;;;6.50;96.90;;;;;;5035736;28;20132;-84
2020/12/15 05:59:33;;;;;;;14.17;8.13;;;6.60;96.70;;;;;;5034871;28;20558;-86
2020/12/15 06:02:08;;;;;;;11.43;7.22;;;6.60;96.80;;;;;;5034879;28;20080;-84
2020/12/15 06:04:36;;;;;;;;;;;6.60;96.80;;;;;;5035703;28;20132;-84
2020/12/15 06:07:04;;;;;;;10.43;6.68;;;6.60;96.90;;;;;;5034401;28;20003;-84
2020/12/15 06:09:32;;;;;;;14.70;8.40;;;6.70;96.90;;;;;;5034716;28;20136;-84
2020/12/15 06:11:59;;;;;;;18.42;10.48;;;6.60;96.70;;;;;;5034689;28;20080;-85
2020/12/15 06:14:27;;;;;;;20.45;11.55;;;6.80;96.70;;;;;;5034638;28;20057;-84
2020/12/15 06:16:55;;;;;;;16.88;9.93;;;6.60;96.70;;;;;;5034649;28;20095;-84
2020/12/15 06:19:23;;;;;;;14.80;8.95;;;6.70;96.70;;;;;;5034447;28;20137;-85
2020/12/15 06:21:53;;;;;;;16.40;9.93;;;6.60;96.60;;;;;;5034427;28;20461;-85
2020/12/15 06:24:25;;;;;;;14.27;8.43;;;6.70;96.70;;;;;;5035052;28;20497;-85
2020/12/15 06:27:01;;;;;;;15.23;8.60;;;6.60;96.80;;;;;;5034490;28;20081;-85
2020/12/15 06:29:31;;;;;;;15.02;8.70;;;6.60;96.80;;;;;;5034944;28;20474;-85
2020/12/15 06:32:00;;;;;;;15.00;8.23;;;6.60;96.80;;;;;;5035807;28;20502;-85
2020/12/15 06:34:29;;;;;;;11.95;7.70;;;6.50;97.20;;;;;;5035192;28;20394;-85
2020/12/15 06:36:56;;;;;;;13.63;7.88;;;6.30;97.40;;;;;;5033619;28;20133;-85
2020/12/15 06:39:25;;;;;;;13.63;8.77;;;6.30;97.40;;;;;;5035295;28;20132;-85
2020/12/15 06:42:00;;;;;;;13.98;8.70;;;6.20;97.40;;;;;;5035466;28;20140;-85
2020/12/15 06:44:30;;;;;;;;;;;6.30;97.50;;;;;;5035263;28;20056;-85
2020/12/15 06:46:59;;;;;;;11.63;7.00;;;6.30;97.40;;;;;;5034704;28;20377;-85
2020/12/15 06:49:30;;;;;;;14.57;7.28;;;6.40;97.40;;;;;;5034790;28;20106;-84
2020/12/15 06:51:59;;;;;;;13.68;7.80;;;6.40;97.40;;;;;;5033631;28;20060;-85
2020/12/15 06:54:28;;;;;;;12.77;7.47;;;6.50;97.40;;;;;;5034656;28;20088;-85
2020/12/15 06:57:07;;;;;;;13.57;7.65;;;6.60;97.20;;;;;;5034349;28;20050;-85
2020/12/15 06:59:36;;;;;;;13.52;7.88;;;6.50;97.30;;;;;;5034587;28;20053;-85
2020/12/15 07:02:13;;;;;;;13.55;7.60;;;6.50;97.20;;;;;;5034407;28;20055;-84
2020/12/15 07:04:43;;;;;;;12.20;7.80;;;6.40;97.30;;;;;;5034155;28;20128;-84
2020/12/15 07:07:11;;;;;;;11.98;7.45;;;6.40;97.60;;;;;;5033399;28;20088;-85
2020/12/15 07:09:38;;;;;;;15.43;8.30;;;6.30;97.50;;;;;;5038657;28;20083;-83
2020/12/15 07:12:12;;;;;;;14.88;8.32;;;6.30;97.70;;;;;;5033828;28;20053;-84
2020/12/15 07:14:39;;;;;;;14.73;9.60;;;6.30;97.80;;;;;;5033556;28;20053;-85
2020/12/15 07:17:05;;;;;;;15.98;9.30;;;6.20;98.00;;;;;;5033633;28;20049;-85
2020/12/15 07:19:33;;;;;;;14.15;8.63;;;6.10;98.20;;;;;;5032494;28;20128;-87
2020/12/15 07:22:03;;;;;;;15.80;9.25;;;6.00;98.40;;;;;;5032902;28;20068;-86
2020/12/15 07:24:31;;;;;;;13.63;8.77;;;5.90;98.50;;;;;;5034060;28;20053;-86
2020/12/15 07:26:59;;;;;;;17.38;9.88;;;6.00;98.50;;;;;;5033011;28;20045;-85
2020/12/15 07:29:25;;;;;;;16.75;9.85;;;6.00;98.50;;;;;;5032841;28;20136;-84
2020/12/15 07:31:52;;;;;;;15.00;9.40;;;6.00;98.50;;;;;;5033212;28;20184;-87
2020/12/15 07:34:19;;;;;;;17.30;9.18;;;6.10;98.50;;;;;;5033134;28;20092;-85
2020/12/15 07:36:49;;;;;;;15.85;9.57;;;6.10;98.40;;;;;;5032974;28;20128;-85
2020/12/15 07:39:17;;;;;;;16.15;9.48;;;6.20;98.20;;;;;;5032823;28;20081;-85
2020/12/15 07:41:55;;;;;;;14.13;8.77;;;6.20;98.30;;;;;;5032995;28;20136;-83
2020/12/15 07:44:22;;;;;;;14.48;7.68;;;6.20;98.30;;;;;;5032856;28;20519;-84
2020/12/15 07:46:49;;;;;;;14.85;8.35;;;6.10;98.10;;;;;;5032852;28;20137;-85
2020/12/15 07:49:16;;;;;;;15.45;8.30;;;6.10;98.10;;;;;;5032877;28;20137;-84
2020/12/15 07:51:43;;;;;;;13.43;8.27;;;6.20;97.90;;;;;;5032520;28;20184;-84
2020/12/15 07:54:10;;;;;;;13.57;8.48;;;6.20;98.10;;;;;;5032592;28;20548;-85
2020/12/15 07:56:37;;;;;;;12.77;8.07;;;6.10;98.00;;;;;;5032362;28;20554;-84
2020/12/15 07:59:05;;;;;;;13.68;8.05;;;6.30;97.60;;;;;;5032564;28;20144;-84
2020/12/15 08:01:33;;;;;;;14.57;8.63;;;6.40;97.70;;;;;;5032419;28;20462;-85
2020/12/15 08:04:04;;;;;;;13.45;7.95;;;6.40;97.70;;;;;;5032655;28;20071;-84
2020/12/15 08:06:33;;;;;;;13.63;7.85;;;6.50;97.50;;;;;;5035740;28;20132;-84
2020/12/15 08:09:00;;;;;;;12.18;7.35;;;6.50;97.20;;;;;;5036306;28;20566;-84
2020/12/15 08:11:28;;;;;;;11.68;7.35;;;6.60;97.30;;;;;;5036405;28;20129;-84
2020/12/15 08:13:54;;;;;;;12.10;7.20;;;6.70;97.20;;;;;;5036498;28;20583;-83
2020/12/15 08:16:22;;;;;;;12.85;7.57;;;6.70;97.20;;;;;;5036752;28;20140;-84
2020/12/15 08:18:49;;;;;;;11.15;7.55;;;6.70;96.80;;;;;;5035831;28;20502;-84
2020/12/15 08:21:17;;;;;;;10.50;7.18;;;6.70;96.50;;;;;;5036004;28;20049;-84
2020/12/15 08:23:54;;;;;;;13.50;7.13;;;6.80;96.80;;;;;;5035906;28;20398;-85
2020/12/15 08:26:22;;;;;;;12.82;7.38;;;6.70;96.70;;;;;;5036138;28;20136;-85
2020/12/15 08:28:50;;;;;;;12.45;7.10;;;6.70;96.80;;;;;;5036998;28;20049;-85
2020/12/15 08:31:18;;;;;;;12.32;6.60;;;6.70;96.80;;;;;;5036507;28;20139;-85
2020/12/15 08:33:44;;;;;;;11.98;7.03;;;6.90;96.80;;;;;;5035762;28;20049;-85
2020/12/15 08:36:11;;;;;;;10.73;6.93;;;6.90;96.90;;;;;;5035811;28;20136;-85
2020/12/15 08:38:43;;;;;;;12.80;7.22;;;6.90;96.90;;;;;;5035626;28;20483;-85
2020/12/15 08:41:15;;;;;;;11.18;6.80;;;6.90;96.90;;;;;;5035940;28;20056;-85
2020/12/15 08:43:42;;;;;;;9.88;6.85;;;6.90;97.10;;;;;;5035749;28;20102;-84
2020/12/15 08:46:18;;;;;;;10.30;6.30;;;6.80;97.10;;;;;;5035344;28;20049;-84
2020/12/15 08:48:44;;;;;;;10.60;5.90;;;6.90;96.80;;;;;;5036229;28;20132;-84
2020/12/15 08:51:13;;;;;;;10.65;6.38;;;6.80;95.90;;;;;;5035487;28;20144;-84
2020/12/15 08:53:41;;;;;;;11.85;6.97;;;6.90;96.80;;;;;;5035064;28;20053;-84
2020/12/15 08:56:15;;;;;;;12.13;6.38;;;7.00;97.00;;;;;;5035432;28;20113;-84
2020/12/15 08:58:42;;;;;;;12.43;7.07;;;7.10;95.50;;;;;;5035535;28;20056;-84
2020/12/15 09:01:09;;;;;;;11.40;6.45;;;7.00;96.20;;;;;;5035367;28;20136;-84
2020/12/15 09:03:46;;;;;;;11.30;6.43;;;7.10;95.80;;;;;;5035327;28;20136;-84
2020/12/15 09:06:12;;;;;;;12.52;6.88;;;7.10;96.10;;;;;;5034887;28;20455;-83
2020/12/15 09:08:50;;;;;;;12.98;7.20;;;7.20;96.40;;;;;;5034986;28;20049;-84
2020/12/15 09:11:17;;;;;;;12.90;7.85;;;7.20;96.40;;;;;;5035048;28;20057;-83
2020/12/15 09:13:57;;;;;;;15.48;8.50;;;7.20;95.80;;;;;;5034994;28;20531;-84
2020/12/15 09:16:27;;;;;;;23.17;12.65;;;7.20;96.30;;;;;;5034067;28;20172;-84
2020/12/15 09:18:54;;;;;;;19.05;11.13;;;7.20;96.20;;;;;;5035138;28;20467;-83
2020/12/15 09:21:21;;;;;;;22.67;11.93;;;7.20;96.40;;;;;;5035084;28;20052;-84
2020/12/15 09:23:52;;;;;;;18.75;11.13;;;7.20;96.40;;;;;;5021898;28;20072;-83
2020/12/15 09:26:20;;;;;;;18.77;9.77;;;7.10;96.40;;;;;;5015026;28;20626;-84
2020/12/15 09:28:47;;;;;;;20.83;11.43;;;7.00;96.50;;;;;;5015013;28;20049;-84
2020/12/15 09:31:15;;;;;;;23.75;13.65;;;7.20;96.40;;;;;;5014501;28;20133;-84
2020/12/15 09:33:42;;;;;;;25.55;13.85;;;7.30;96.30;;;;;;5014608;28;20046;-84
2020/12/15 09:36:12;;;;;;;24.02;13.20;;;7.50;96.40;;;;;;5014940;28;20515;-84
2020/12/15 09:38:39;;;;;;;26.48;13.48;;;7.50;96.10;;;;;;5014870;28;20181;-84
2020/12/15 09:41:06;;;;;;;29.02;15.68;;;7.50;96.00;;;;;;5014898;28;20084;-85
2020/12/15 09:43:33;;;;;;;28.15;16.60;;;7.60;96.20;;;;;;5014825;28;20586;-84
2020/12/15 09:46:02;;;;;;;26.25;15.18;;;7.60;96.30;;;;;;5014869;28;20125;-84
2020/12/15 09:48:28;;;;;;;22.00;12.27;;;7.80;96.10;;;;;;5014412;28;20137;-83
2020/12/15 09:50:55;;;;;;;18.83;9.98;;;7.80;95.60;;;;;;4981435;28;20081;-84
2020/12/15 09:53:23;;;;;;;18.13;10.20;;;7.50;95.50;;;;;;4997420;28;20128;-84
2020/12/15 09:55:49;;;;;;;26.80;15.30;;;7.70;95.40;;;;;;5014575;28;20050;-83
2020/12/15 09:58:17;;;;;;;21.65;12.13;;;7.80;95.80;;;;;;5014684;28;20137;-83
2020/12/15 10:00:44;;;;;;;20.42;12.55;;;7.80;97.00;;;;;;5014389;28;20050;-84
2020/12/15 10:03:10;;;;;;;19.48;11.30;;;7.70;97.00;;;;;;5014273;28;20124;-85
2020/12/15 10:05:37;;;;;;;20.30;11.38;;;7.70;97.00;;;;;;5014529;28;20140;-85
2020/12/15 10:08:03;;;;;;;22.63;12.23;;;7.70;97.40;;;;;;5014264;28;20451;-85
2020/12/15 10:10:31;;;;;;;21.17;12.13;;;7.70;97.30;;;;;;5014487;28;20128;-85
2020/12/15 10:12:58;;;;;;;19.75;11.80;;;7.60;97.20;;;;;;5014292;28;20594;-84
2020/12/15 10:15:26;;;;;;;18.20;11.35;;;7.70;97.40;;;;;;5014233;28;20049;-84
2020/12/15 10:17:53;;;;;;;20.30;12.25;;;7.60;97.30;;;;;;5014539;28;20089;-85
2020/12/15 10:20:20;;;;;;;18.17;10.63;;;7.60;97.10;;;;;;5013932;28;20072;-83
2020/12/15 10:22:47;;;;;;;18.00;11.30;;;7.70;97.10;;;;;;5018432;28;20140;-83
2020/12/15 10:25:14;;;;;;;18.25;11.13;;;7.80;97.30;;;;;;5033892;28;20053;-85
2020/12/15 10:27:41;;;;;;;18.33;10.60;;;7.90;97.10;;;;;;5033336;28;20124;-85
2020/12/15 10:30:08;;;;;;;20.63;11.13;;;8.00;97.10;;;;;;5033598;28;20144;-85
2020/12/15 10:32:34;;;;;;;16.50;10.60;;;8.00;96.80;;;;;;5033399;28;20478;-84
2020/12/15 10:35:01;;;;;;;19.48;11.05;;;8.10;96.70;;;;;;5033777;28;20137;-85
2020/12/15 10:37:28;;;;;;;16.02;10.38;;;8.20;96.30;;;;;;5033607;28;20132;-85
2020/12/15 10:39:54;;;;;;;18.98;10.70;;;8.20;96.50;;;;;;5033487;28;20092;-85
2020/12/15 10:42:21;;;;;;;14.85;9.52;;;8.30;96.30;;;;;;5033804;28;20121;-85
2020/12/15 10:44:49;;;;;;;18.13;10.30;;;8.30;95.80;;;;;;5033366;28;20080;-85
2020/12/15 10:47:16;;;;;;;18.73;11.35;;;8.20;96.10;;;;;;5033722;28;20060;-85
2020/12/15 10:49:43;;;;;;;20.20;11.18;;;8.20;96.50;;;;;;5033218;28;20049;-85
2020/12/15 10:52:09;;;;;;;17.50;10.70;;;8.00;96.80;;;;;;5033204;28;20140;-85
2020/12/15 10:54:36;;;;;;;17.50;10.20;;;8.10;96.40;;;;;;5033287;28;20140;-84
2020/12/15 10:57:02;;;;;;;19.75;10.73;;;8.00;96.50;;;;;;5033108;28;20064;-85
2020/12/15 10:59:29;;;;;;;14.57;9.27;;;8.30;96.30;;;;;;5032961;28;20136;-85
2020/12/15 11:01:56;;;;;;;16.05;10.40;;;8.10;96.10;;;;;;5032924;28;20160;-85
2020/12/15 11:04:23;;;;;;;17.42;10.38;;;8.20;96.30;;;;;;5032993;28;20132;-85
2020/12/15 11:06:50;;;;;;;16.13;9.93;;;8.30;96.00;;;;;;5033295;28;20163;-85
2020/12/15 11:09:16;;;;;;;19.45;10.02;;;8.30;95.80;;;;;;5033237;28;20141;-85
2020/12/15 11:11:47;;;;;;;18.70;10.65;;;8.50;95.80;;;;;;5033288;28;20569;-85
2020/12/15 11:14:13;;;;;;;19.05;10.68;;;8.60;95.80;;;;;;5033240;28;20149;-85
2020/12/15 11:16:40;;;;;;;16.58;10.02;;;8.40;95.90;;;;;;5033013;28;20132;-85
2020/12/15 11:19:08;;;;;;;16.58;9.68;;;8.50;96.00;;;;;;5032868;28;20124;-85
2020/12/15 11:21:34;;;;;;;14.55;9.85;;;8.70;96.10;;;;;;5032922;28;20136;-85
2020/12/15 11:24:01;;;;;;;14.93;10.23;;;8.70;95.70;;;;;;5032715;28;20484;-85
2020/12/15 11:26:27;;;;;;;15.18;9.57;;;8.70;95.50;;;;;;5032881;28;20125;-85
2020/12/15 11:28:54;;;;;;;14.88;10.15;;;8.80;95.30;;;;;;5033110;28;20140;-85
2020/12/15 11:31:20;;;;;;;16.42;9.40;;;8.90;95.30;;;;;;5041707;28;20151;-85
2020/12/15 11:33:47;;;;;;;15.52;9.43;;;8.90;95.20;;;;;;5044035;28;20114;-86
2020/12/15 11:36:16;;;;;;;16.00;9.73;;;9.10;95.20;;;;;;5024380;28;20183;-85
2020/12/15 11:38:44;;;;;;;14.23;9.30;;;9.10;95.10;;;;;;5018444;28;20121;-85
2020/12/15 11:41:11;;;;;;;13.73;8.70;;;9.20;94.80;;;;;;5016035;28;20582;-85
2020/12/15 11:43:38;;;;;;;14.40;8.75;;;9.30;95.00;;;;;;5029552;28;20054;-85
2020/12/15 11:46:05;;;;;;;14.02;8.80;;;9.30;94.70;;;;;;5036819;28;20144;-85
2020/12/15 11:48:31;;;;;;;14.75;9.30;;;9.40;94.80;;;;;;5036822;28;20128;-84
2020/12/15 11:50:58;;;;;;;14.13;9.25;;;9.50;94.60;;;;;;5036568;28;20586;-82
2020/12/15 11:53:26;;;;;;;17.00;8.93;;;9.50;94.90;;;;;;5036525;28;20538;-83
2020/12/15 11:55:53;;;;;;;13.73;8.75;;;9.50;94.50;;;;;;5036648;28;20107;-84
2020/12/15 11:58:20;;;;;;;16.13;9.32;;;9.60;94.40;;;;;;5036683;28;20052;-84
2020/12/15 12:00:46;;;;;;;13.43;8.70;;;9.60;94.50;;;;;;5036655;28;20124;-84
2020/12/15 12:03:13;;;;;;;14.45;9.45;;;9.60;94.40;;;;;;5036480;28;20140;-85
2020/12/15 12:05:39;;;;;;;13.60;9.70;;;9.60;94.00;;;;;;5036126;28;20085;-84
2020/12/15 12:08:06;;;;;;;13.50;8.98;;;9.60;94.30;;;;;;5036157;28;20133;-83
2020/12/15 12:10:33;;;;;;;13.48;8.98;;;9.60;94.60;;;;;;5036399;28;20057;-86
2020/12/15 12:13:00;;;;;;;16.25;8.95;;;9.60;94.50;;;;;;5036026;28;20144;-84
2020/12/15 12:15:27;;;;;;;16.58;9.20;;;9.70;94.40;;;;;;5036208;28;20133;-84
2020/12/15 12:17:54;;;;;;;14.20;9.60;;;9.70;94.20;;;;;;5036369;28;20132;-84
2020/12/15 12:20:21;;;;;;;16.58;9.15;;;9.80;94.60;;;;;;5035978;28;20053;-85
2020/12/15 12:22:47;;;;;;;15.13;9.38;;;9.80;94.60;;;;;;5035921;28;20512;-84
2020/12/15 12:25:14;;;;;;;15.00;8.75;;;9.90;94.80;;;;;;5036268;28;20136;-84
2020/12/15 12:27:42;;;;;;;14.68;8.90;;;9.70;94.60;;;;;;5036100;28;20137;-83
2020/12/15 12:30:08;;;;;;;13.57;8.32;;;9.80;94.70;;;;;;5035989;28;20550;-83
2020/12/15 12:32:35;;;;;;;13.00;8.25;;;10.00;94.60;;;;;;5034820;28;20137;-83
2020/12/15 12:35:01;;;;;;;15.85;8.55;;;10.00;94.50;;;;;;5035729;28;20144;-85
2020/12/15 12:37:28;;;;;;;15.45;8.20;;;10.00;94.40;;;;;;5035546;28;20132;-84
2020/12/15 12:39:54;;;;;;;11.25;6.85;;;10.00;94.40;;;;;;5035791;28;20128;-84
2020/12/15 12:42:21;;;;;;;12.35;6.80;;;10.10;94.00;;;;;;5035701;28;20054;-84
2020/12/15 12:44:48;;;;;;;12.32;7.05;;;10.10;93.80;;;;;;5035468;28;20125;-84
2020/12/15 12:47:15;;;;;;;13.23;6.82;;;10.20;93.60;;;;;;5035724;28;20077;-82
2020/12/15 12:49:41;;;;;;;12.27;6.90;;;10.30;93.90;;;;;;5035462;28;20411;-83